EST,Max TemperatureF,Mean TemperatureF,Min TemperatureF,Max Dew PointF,MeanDew PointF,Min DewpointF,Max Humidity, Mean Humidity, Min Humidity, Max Sea Level PressureIn, Mean Sea Level PressureIn, Min Sea Level PressureIn, Max VisibilityMiles, Mean VisibilityMiles, Min VisibilityMiles, Max Wind SpeedMPH, Mean Wind SpeedMPH, Max Gust SpeedMPH,PrecipitationIn, CloudCover, Events, WindDirDegrees
2012-2-1,55,46,36,43,35,29,83,65,45,30.09,29.93,29.82,10,10,10,24,11,31,0.00,7,Rain,265
2012-2-2,34,30,25,28,25,21,93,82,76,30.38,30.19,30.05,10,9,6,14,7,,0.00,8,Snow,328
2012-2-3,34,30,26,27,22,18,82,72,65,30.51,30.42,30.36,10,10,10,13,8,,0.00,8,,304
2012-2-4,36,31,25,28,24,19,87,75,57,30.35,30.26,30.19,10,10,9,10,7,,0.00,8,,320
2012-2-5,31,27,23,20,16,13,85,66,56,30.23,30.19,30.15,10,10,10,8,4,,0.00,7,Snow,23
2012-2-6,50,37,24,25,21,17,88,60,28,30.18,30.04,29.94,10,10,10,14,5,20,0.00,1,,231
2012-2-7,36,32,26,30,26,18,92,78,63,30.31,30.14,29.98,10,9,4,13,8,,0.00,8,Snow,307
2012-2-8,31,26,20,22,19,16,89,77,56,30.32,30.24,30.13,10,10,10,6,2,,0.00,6,,294
2012-2-9,41,30,18,22,16,13,92,64,32,30.18,30.13,30.10,10,10,10,10,4,,0.00,0,,264
2012-2-10,34,28,21,27,19,15,93,71,46,30.13,30.01,29.87,10,8,2,10,4,,0.00,5,Snow,221
2012-2-11,28,20,11,27,19,5,100,90,73,29.93,29.82,29.69,10,4,1,20,6,28,0.00,8,Snow,331
2012-2-12,23,18,12,18,11,8,93,82,66,29.96,29.87,29.78,10,4,0,29,12,39,0.00,8,Fog-Snow,308
2012-2-13,36,29,22,19,14,5,72,56,38,30.01,29.98,29.93,10,10,10,17,13,26,0.00,3,,272
2012-2-14,35,28,22,30,23,10,85,71,47,30.06,30.02,29.97,10,9,4,9,3,,0.00,8,Snow,161
2012-2-15,35,30,25,32,29,23,100,88,76,30.30,30.18,30.00,10,8,1,9,4,,0.00,7,Rain-Snow,314
2012-2-16,37,31,26,34,29,24,100,87,79,30.27,30.12,29.93,10,9,6,15,8,21,0.00,7,Rain,150
2012-2-17,39,32,24,28,24,19,93,66,52,30.04,30.00,29.96,10,10,7,20,11,22,0.00,6,Snow,292
2012-2-18,39,32,26,30,25,19,93,75,65,30.01,29.93,29.82,10,8,0,18,9,28,0.00,7,Snow,233
2012-2-19,30,28,26,23,20,14,80,73,51,30.11,30.08,30.04,10,10,10,12,6,,0.00,7,Snow,338
2012-2-20,32,26,19,23,15,7,93,66,40,30.37,30.32,30.15,10,10,10,12,8,20,0.00,1,,326
2012-2-21,37,28,18,29,20,13,89,67,41,30.36,30.01,29.75,10,9,2,20,10,25,0.00,5,Snow,153
2012-2-22,47,40,34,35,30,26,96,69,46,29.73,29.58,29.39,10,9,2,18,10,26,0.00,6,Rain,215
2012-2-23,41,36,30,34,30,26,100,91,60,29.76,29.51,29.38,10,5,0,14,5,,0.00,7,Fog-Rain-Snow,318
2012-2-24,38,34,30,36,30,23,100,87,62,29.71,29.52,29.33,10,8,2,25,8,39,0.00,8,Rain-Snow,135
2012-2-25,32,28,24,27,22,12,93,77,58,30.10,29.65,29.42,10,6,0,33,19,41,0.00,7,Fog-Snow,282
2012-2-26,31,27,23,19,16,12,78,66,56,30.45,30.35,30.19,10,10,10,25,16,31,0.00,5,Snow,318
2012-2-27,50,39,28,26,21,16,68,55,38,30.34,30.20,30.02,10,10,10,25,10,38,0.00,6,Rain,202
2012-2-28,33,28,24,24,20,18,81,68,59,30.49,30.41,30.28,10,10,7,24,13,29,0.00,6,Snow,319
2012-2-29,34,30,27,34,27,19,97,83,57,30.36,30.00,29.68,10,7,1,17,8,26,0.00,8,Rain-Snow,117